createdAt,value
2023-03-13T00:00:25.059Z,2.88
2023-03-13T00:04:27.130Z,2.92
2023-03-13T00:08:30.095Z,3.38
2023-03-13T00:12:32.318Z,2.78
2023-03-13T00:16:35.628Z,3.08
2023-03-13T00:20:37.723Z,2.42
2023-03-13T00:24:39.710Z,3.17
2023-03-13T00:28:42.593Z,3.28
2023-03-13T00:32:46.278Z,2.47
2023-03-13T00:36:48.402Z,3.03
2023-03-13T00:40:58.116Z,2.63
2023-03-13T00:45:03.065Z,3.15
2023-03-13T00:49:05.858Z,2.58
2023-03-13T00:53:09.006Z,2.63
2023-03-13T00:57:11.188Z,2.67
2023-03-13T01:01:14.654Z,2.40
2023-03-13T01:05:16.687Z,2.70
2023-03-13T01:09:18.797Z,2.17
2023-03-13T01:13:20.780Z,2.42
2023-03-13T01:17:22.820Z,2.58
2023-03-13T01:21:25.858Z,2.55
2023-03-13T01:25:27.881Z,2.40
2023-03-13T01:29:29.918Z,2.22
2023-03-13T01:33:32.048Z,2.65
2023-03-13T01:37:34.112Z,2.58
2023-03-13T01:41:37.910Z,3.00
2023-03-13T01:46:04.407Z,2.80
2023-03-13T01:50:19.689Z,2.50
2023-03-13T01:54:40.578Z,1.85
2023-03-13T01:58:43.073Z,2.25
2023-03-13T02:02:49.096Z,2.67
2023-03-13T02:06:57.004Z,2.25
2023-03-13T02:11:39.533Z,2.75
2023-03-13T02:15:41.951Z,2.83
2023-03-13T02:19:48.286Z,2.55
2023-03-13T02:24:30.055Z,2.40
2023-03-13T02:28:35.884Z,2.40
2023-03-13T02:32:41.499Z,2.58
2023-03-13T02:36:45.731Z,2.45
2023-03-13T02:40:50.376Z,2.63
2023-03-13T02:44:52.531Z,2.85
2023-03-13T02:48:56.958Z,2.30
2023-03-13T02:53:07.037Z,2.63
2023-03-13T02:57:09.511Z,2.55
2023-03-13T03:01:11.661Z,2.50
2023-03-13T03:05:16.290Z,1.95
2023-03-13T03:09:20.019Z,2.38
2023-03-13T03:13:22.327Z,2.17
2023-03-13T03:17:24.377Z,2.10
2023-03-13T03:21:26.573Z,2.55
2023-03-13T03:25:28.631Z,1.98
2023-03-13T03:29:31.002Z,2.20
2023-03-13T03:33:34.775Z,2.40
2023-03-13T03:37:40.312Z,1.83
2023-03-13T03:41:42.474Z,2.40
2023-03-13T03:45:46.285Z,2.20
2023-03-13T03:49:49.159Z,2.25
2023-03-13T03:53:52.116Z,1.90
2023-03-13T03:57:54.441Z,1.70
2023-03-13T04:02:15.083Z,1.80
2023-03-13T04:06:18.898Z,2.10
2023-03-13T04:10:21.936Z,2.30
2023-03-13T04:14:24.033Z,2.13
2023-03-13T04:18:27.687Z,1.67
2023-03-13T04:22:29.840Z,1.58
2023-03-13T04:26:33.744Z,1.90
2023-03-13T04:30:36.420Z,1.77
2023-03-13T04:34:53.030Z,1.40
2023-03-13T04:39:16.543Z,1.63
2023-03-13T04:43:36.933Z,1.35
2023-03-13T04:47:46.426Z,0.80
2023-03-13T04:52:11.668Z,0.90
2023-03-13T04:56:42.630Z,0.73
2023-03-13T05:01:06.111Z,0.90
2023-03-13T05:05:26.533Z,1.10
2023-03-13T05:09:51.680Z,1.13
2023-03-13T05:14:16.576Z,1.23
2023-03-13T05:18:41.512Z,1.00
2023-03-13T05:23:02.309Z,0.95
2023-03-13T05:27:22.763Z,1.45
2023-03-13T05:31:38.252Z,1.55
2023-03-13T05:35:49.577Z,1.90
2023-03-13T05:40:10.855Z,1.75
2023-03-13T05:44:35.711Z,2.50
2023-03-13T05:48:55.561Z,2.30
2023-03-13T05:53:16.337Z,2.58
2023-03-13T05:57:48.513Z,2.28
2023-03-13T06:02:08.854Z,2.03
2023-03-13T06:06:15.612Z,1.65
2023-03-13T06:10:29.521Z,1.88
2023-03-13T06:14:31.981Z,1.98
2023-03-13T06:18:52.300Z,2.20
2023-03-13T06:22:54.341Z,2.03
2023-03-13T06:26:56.320Z,1.95
2023-03-13T06:31:06.211Z,1.70
2023-03-13T06:35:08.732Z,1.00
2023-03-13T06:39:12.050Z,2.95
2023-03-13T06:43:14.054Z,1.88
2023-03-13T06:47:16.137Z,2.60
2023-03-13T06:51:20.915Z,1.40
2023-03-13T06:55:24.368Z,1.33
2023-03-13T06:59:26.464Z,0.90
2023-03-13T07:03:28.541Z,1.40
2023-03-13T07:07:32.594Z,1.17
2023-03-13T07:11:34.735Z,0.50
2023-03-13T07:15:36.919Z,0.50
2023-03-13T07:19:38.912Z,0.50
2023-03-13T07:23:41.210Z,0.40
2023-03-13T07:27:43.324Z,0.30
2023-03-13T07:31:45.463Z,2.00
2023-03-13T07:35:49.243Z,2.10
2023-03-13T07:39:51.366Z,2.60
2023-03-13T07:43:53.411Z,2.42
2023-03-13T07:47:55.407Z,2.63
2023-03-13T07:51:57.677Z,3.10
2023-03-13T07:56:11.732Z,3.40
2023-03-13T08:00:16.818Z,2.60
2023-03-13T08:04:19.504Z,2.38
2023-03-13T08:08:21.567Z,2.50
2023-03-13T08:12:23.599Z,0.80
2023-03-13T08:16:31.744Z,0.80
2023-03-13T08:20:33.849Z,0.80
2023-03-13T08:24:35.907Z,0.80
2023-03-13T08:28:39.236Z,0.80
2023-03-13T08:32:41.325Z,0.90
2023-03-13T08:36:43.700Z,0.80
2023-03-13T08:40:45.704Z,0.88
2023-03-13T08:44:47.766Z,0.93
2023-03-13T08:48:51.649Z,0.70
2023-03-13T08:52:53.767Z,0.70
2023-03-13T08:56:55.828Z,0.80
2023-03-13T09:01:03.198Z,0.70
2023-03-13T09:09:08.115Z,0.70
2023-03-13T09:13:10.260Z,0.82
2023-03-13T09:17:12.256Z,0.90
2023-03-13T09:21:18.178Z,3.15
2023-03-13T09:25:20.237Z,1.50
2023-03-13T09:29:22.324Z,1.20
2023-03-13T09:33:24.320Z,2.33
2023-03-13T09:37:26.533Z,1.20
2023-03-13T09:41:43.699Z,1.17
2023-03-13T09:45:48.232Z,1.80
2023-03-13T09:49:57.012Z,1.50
2023-03-13T09:54:20.113Z,1.10
2023-03-13T09:58:25.796Z,1.13
2023-03-13T10:02:36.457Z,1.30
2023-03-13T10:06:41.810Z,1.20
2023-03-13T10:10:49.740Z,1.10
2023-03-13T10:15:17.314Z,1.13
2023-03-13T10:19:27.226Z,0.90
2023-03-13T10:23:57.761Z,0.98
2023-03-13T10:28:00.903Z,0.70
2023-03-13T10:32:05.924Z,0.90
2023-03-13T10:36:13.703Z,0.60
2023-03-13T10:40:25.417Z,0.80
2023-03-13T10:44:33.273Z,0.85
2023-03-13T10:48:37.636Z,0.60
2023-03-13T10:52:45.708Z,0.70
2023-03-13T10:56:48.120Z,0.70
2023-03-13T11:00:50.688Z,0.73
2023-03-13T11:04:54.043Z,0.80
2023-03-13T11:09:05.142Z,0.60
2023-03-13T11:13:36.444Z,0.50
2023-03-13T11:17:43.010Z,0.70
2023-03-13T11:21:57.240Z,1.38
2023-03-13T11:26:19.478Z,0.70
2023-03-13T11:30:44.220Z,0.93
2023-03-13T11:34:54.097Z,0.70
2023-03-13T11:39:11.617Z,0.70
2023-03-13T11:43:30.363Z,0.80
2023-03-13T11:48:07.966Z,0.50
2023-03-13T11:52:21.201Z,0.35
2023-03-13T11:56:32.556Z,0.40
2023-03-13T12:00:44.039Z,0.60
2023-03-13T12:04:54.488Z,1.00
2023-03-13T12:09:04.817Z,0.85
2023-03-13T12:13:34.519Z,0.82
2023-03-13T12:17:46.444Z,1.65
2023-03-13T12:21:54.655Z,1.00
2023-03-13T12:26:04.435Z,1.02
2023-03-13T12:30:42.199Z,1.10
2023-03-13T12:35:23.766Z,2.45
2023-03-13T12:39:50.032Z,1.88
2023-03-13T12:44:07.603Z,1.80
2023-03-13T12:48:43.517Z,1.58
2023-03-13T12:53:22.789Z,1.70
2023-03-13T12:58:06.482Z,1.40
2023-03-13T13:02:20.326Z,1.40
2023-03-13T13:06:23.023Z,1.30
2023-03-13T13:10:26.454Z,1.17
2023-03-13T13:14:28.424Z,1.27
2023-03-13T13:18:32.312Z,1.33
2023-03-13T13:22:36.624Z,2.20
2023-03-13T13:26:38.997Z,1.30
2023-03-13T13:30:41.351Z,1.33
2023-03-13T13:34:52.613Z,1.55
2023-03-13T13:38:55.665Z,1.38
2023-03-13T13:43:00.367Z,1.55
2023-03-13T13:47:03.194Z,1.25
2023-03-13T13:51:23.739Z,1.50
2023-03-13T13:55:48.683Z,1.20
2023-03-13T13:59:54.531Z,1.17
2023-03-13T14:04:13.234Z,1.52
2023-03-13T14:08:31.197Z,1.40
2023-03-13T14:12:38.689Z,1.10
2023-03-13T14:16:46.125Z,1.45
2023-03-13T14:21:03.041Z,1.60
2023-03-13T14:25:05.562Z,7.47
2023-03-13T14:29:15.543Z,4.88
2023-03-13T14:33:18.246Z,3.22
2023-03-13T14:38:01.163Z,1.80
2023-03-13T14:42:10.373Z,3.10
2023-03-13T14:46:31.863Z,3.97
2023-03-13T14:50:35.190Z,2.38
2023-03-13T14:54:58.994Z,4.30
2023-03-13T14:59:08.028Z,3.28
2023-03-13T15:03:16.928Z,12.73
2023-03-13T15:07:19.890Z,2.40
2023-03-13T15:11:34.705Z,2.53
2023-03-13T15:15:36.734Z,1.83
2023-03-13T15:19:38.780Z,1.27
2023-03-13T15:23:42.236Z,1.75
2023-03-13T15:27:44.745Z,2.75
2023-03-13T15:31:47.041Z,1.50
2023-03-13T15:35:50.411Z,1.50
2023-03-13T15:39:53.521Z,1.10
2023-03-13T15:43:56.943Z,0.50
2023-03-13T15:48:00.390Z,0.38
2023-03-13T15:52:02.419Z,0.50
2023-03-13T15:56:19.799Z,0.50
2023-03-13T16:00:25.826Z,1.85
2023-03-13T16:04:27.917Z,0.30
2023-03-13T16:08:36.143Z,0.40
2023-03-13T16:12:38.992Z,0.32
2023-03-13T16:16:41.054Z,0.50
2023-03-13T16:20:43.106Z,0.38
2023-03-13T16:24:45.236Z,0.50
2023-03-13T16:28:48.107Z,0.45
2023-03-13T16:32:50.618Z,0.60
2023-03-13T16:36:52.651Z,0.40
2023-03-13T16:40:54.632Z,0.50
2023-03-13T16:44:56.986Z,2.13
2023-03-13T16:48:59.723Z,0.88
2023-03-13T16:53:01.808Z,0.55
2023-03-13T16:57:04.388Z,0.60
2023-03-13T17:01:09.009Z,1.08
2023-03-13T17:05:12.495Z,0.77
2023-03-13T17:09:17.790Z,0.73
2023-03-13T17:13:20.407Z,0.70
2023-03-13T17:17:23.017Z,0.50
2023-03-13T17:21:28.894Z,0.82
2023-03-13T17:25:31.454Z,0.60
2023-03-13T17:29:33.513Z,0.55
2023-03-13T17:33:35.622Z,0.70
2023-03-13T17:37:37.618Z,0.85
2023-03-13T17:41:39.665Z,0.88
2023-03-13T17:45:41.800Z,1.10
2023-03-13T17:49:44.692Z,1.30
2023-03-13T17:53:47.160Z,0.73
2023-03-13T17:57:49.451Z,0.77
2023-03-13T18:01:51.624Z,1.05
2023-03-13T18:05:55.678Z,0.73
2023-03-13T18:09:57.738Z,0.95
2023-03-13T18:14:00.871Z,0.70
2023-03-13T18:18:03.045Z,1.10
2023-03-13T18:22:06.677Z,1.10
2023-03-13T18:26:30.121Z,0.90
2023-03-13T18:30:32.219Z,1.20
2023-03-13T18:34:35.076Z,1.25
2023-03-13T18:38:37.210Z,0.90
2023-03-13T18:42:39.475Z,0.90
2023-03-13T18:46:45.531Z,1.10
2023-03-13T18:50:47.511Z,1.10
2023-03-13T18:54:49.683Z,0.93
2023-03-13T18:58:53.469Z,0.65
2023-03-13T19:02:55.603Z,0.60
2023-03-13T19:06:57.592Z,0.68
2023-03-13T19:10:59.854Z,0.55
2023-03-13T19:15:01.905Z,0.75
2023-03-13T19:19:10.939Z,0.90
2023-03-13T19:23:12.945Z,0.55
2023-03-13T19:27:16.778Z,0.50
2023-03-13T19:31:18.886Z,0.70
2023-03-13T19:35:21.820Z,0.43
2023-03-13T19:39:25.950Z,0.30
2023-03-13T19:43:27.944Z,0.40
2023-03-13T19:47:29.972Z,0.80
2023-03-13T19:51:31.954Z,0.47
2023-03-13T19:55:33.949Z,0.60
2023-03-13T19:59:38.659Z,0.40
2023-03-13T20:03:41.122Z,0.40
2023-03-13T20:07:43.452Z,0.60
2023-03-13T20:11:45.533Z,1.30
2023-03-13T20:15:47.692Z,0.88
2023-03-13T20:19:49.741Z,0.60
2023-03-13T20:23:52.086Z,0.50
2023-03-13T20:27:54.857Z,0.40
2023-03-13T20:32:00.295Z,0.40
2023-03-13T20:36:09.302Z,0.73
2023-03-13T20:40:12.083Z,1.00
2023-03-13T20:44:14.208Z,1.30
2023-03-13T20:48:16.887Z,1.75
2023-03-13T20:52:18.876Z,0.90
2023-03-13T20:56:20.917Z,1.40
2023-03-13T21:00:23.650Z,1.00
2023-03-13T21:04:25.910Z,1.13
2023-03-13T21:08:27.981Z,1.70
2023-03-13T21:12:29.992Z,1.17
2023-03-13T21:16:32.092Z,0.63
2023-03-13T21:20:34.653Z,0.50
2023-03-13T21:24:36.930Z,0.75
2023-03-13T21:28:40.187Z,1.25
2023-03-13T21:32:42.251Z,1.67
2023-03-13T21:36:44.382Z,1.98
2023-03-13T21:40:46.392Z,0.60
2023-03-13T21:44:48.475Z,1.17
2023-03-13T21:48:50.506Z,0.77
2023-03-13T21:52:52.842Z,0.90
2023-03-13T21:56:54.844Z,0.93
2023-03-13T22:00:57.746Z,0.45
2023-03-13T22:05:01.303Z,0.38
2023-03-13T22:09:04.254Z,0.30
2023-03-13T22:13:12.322Z,0.30
2023-03-13T22:17:17.625Z,0.43
2023-03-13T22:21:19.832Z,0.50
2023-03-13T22:25:21.944Z,0.40
2023-03-13T22:29:24.108Z,0.40
2023-03-13T22:33:26.363Z,0.40
2023-03-13T22:37:28.436Z,0.52
2023-03-13T22:41:30.467Z,0.50
2023-03-13T22:45:34.011Z,1.58
2023-03-13T22:49:36.058Z,1.02
2023-03-13T22:53:39.953Z,1.80
2023-03-13T22:57:41.960Z,1.42
2023-03-13T23:01:44.061Z,1.52
2023-03-13T23:05:47.503Z,1.30
2023-03-13T23:09:49.618Z,2.00
2023-03-13T23:13:51.757Z,1.40
2023-03-13T23:17:53.846Z,1.60
2023-03-13T23:21:55.861Z,2.20
2023-03-13T23:26:03.443Z,2.10
2023-03-13T23:30:07.990Z,1.95
2023-03-13T23:34:10.091Z,1.30
2023-03-13T23:38:13.074Z,1.20
2023-03-13T23:42:15.069Z,1.98
2023-03-13T23:46:23.109Z,1.17
2023-03-13T23:50:25.247Z,1.13
2023-03-13T23:54:27.276Z,1.30
2023-03-13T23:58:29.297Z,1.30
